Time;durP1;ratioP1;P1;durP2;ratioP2;P2;SDS_P1;SDS_P2;PMS_P1;PMS_P2;Temp;Humidity;BMP_temperature;BMP_pressure;BME280_temperature;BME280_humidity;BME280_pressure;Samples;Min_cycle;Max_cycle;Signal;HPM_P1;HPM_P2
2021/04/26 00:01:46;;;;;;;;;;;;;;;19.39;65.70;100555.31;5049693;28;1976;-69
2021/04/26 00:04:13;;;;;;;;;;;;;;;19.40;65.58;100564.06;5049982;28;1246;-69
2021/04/26 00:06:40;;;;;;;;;;;;;;;19.39;65.66;100562.38;5048295;28;1213;-69
2021/04/26 00:09:06;;;;;;;;;;;;;;;19.39;65.60;100563.25;5049540;28;1228;-68
2021/04/26 00:11:35;;;;;;;;;;;;;;;19.39;65.68;100560.59;5049580;28;1064;-69
2021/04/26 00:14:03;;;;;;;;;;;;;;;19.39;65.68;100552.69;5049649;28;1295;-69
2021/04/26 00:16:29;;;;;;;;;;;;;;;19.39;65.63;100530.66;5031678;28;1714;-69
2021/04/26 00:18:55;;;;;;;;;;;;;;;19.38;65.63;100528.97;5048088;28;1323;-68
2021/04/26 00:21:22;;;;;;;;;;;;;;;19.38;65.56;100518.41;5049137;28;952;-68
2021/04/26 00:23:48;;;;;;;;;;;;;;;19.38;65.59;100521.03;5049294;28;1906;-69
2021/04/26 00:26:15;;;;;;;;;;;;;;;19.37;65.84;100524.63;5047920;28;1502;-69
2021/04/26 00:28:41;;;;;;;;;;;;;;;19.37;65.72;100519.31;5048972;28;1372;-68
2021/04/26 00:31:07;;;;;;;;;;;;;;;19.38;65.56;100502.53;5049650;28;1228;-68
2021/04/26 00:33:35;;;;;;;;;;;;;;;19.38;65.63;100491.97;5051218;28;1165;-67
2021/04/26 00:36:57;;;;;;;;;;;;;;;19.36;65.47;100494.69;4994540;28;1478;-68
2021/04/26 00:39:25;;;;;;;;;;;;;;;19.37;65.63;100495.56;5043003;28;1676;-67
2021/04/26 00:41:54;;;;;;;;;;;;;;;19.37;65.62;100500.84;5049545;28;1926;-68
2021/04/26 00:44:21;;;;;;;;;;;;;;;19.36;65.55;100488.59;5049225;28;1333;-68
2021/04/26 00:46:47;;;;;;;;;;;;;;;19.36;65.59;100500.00;5049156;28;1059;-68
2021/04/26 00:49:15;;;;;;;;;;;;;;;19.36;65.50;100501.81;5049258;28;1248;-68
2021/04/26 00:51:41;;;;;;;;;;;;;;;19.35;65.64;100503.59;5049056;28;1050;-68
2021/04/26 00:54:07;;;;;;;;;;;;;;;19.36;65.64;100499.16;5049195;28;1205;-68
2021/04/26 00:56:33;;;;;;;;;;;;;;;19.35;65.57;100495.66;5049145;28;1148;-68
2021/04/26 00:59:00;;;;;;;;;;;;;;;19.35;65.51;100487.75;5049013;28;1750;-68
2021/04/26 01:01:26;;;;;;;;;;;;;;;19.35;65.39;100482.47;5048846;28;1126;-68
2021/04/26 01:03:53;;;;;;;;;;;;;;;19.35;65.46;100476.34;5045407;28;1898;-65
2021/04/26 01:06:43;;;;;;;;;;;;;;;19.34;65.47;100470.19;5046915;28;1060;-67
2021/04/26 01:09:14;;;;;;;;;;;;;;;19.33;65.35;100450.00;5057115;28;1268;-66
2021/04/26 01:11:54;;;;;;;;;;;;;;;19.35;65.53;100449.91;5053783;28;825;-67
2021/04/26 01:14:24;;;;;;;;;;;;;;;19.34;65.59;100448.22;5051993;28;1356;-68
2021/04/26 01:16:57;;;;;;;;;;;;;;;19.33;65.66;100442.06;5047936;28;841;-68
2021/04/26 01:19:29;;;;;;;;;;;;;;;19.34;65.47;100432.38;5047296;28;1326;-68
2021/04/26 01:22:05;;;;;;;;;;;;;;;19.33;65.51;100438.63;5047901;28;1989;-67
2021/04/26 01:24:46;;;;;;;;;;;;;;;19.34;65.54;100441.13;5046648;28;1262;-68
2021/04/26 01:27:15;;;;;;;;;;;;;;;19.34;65.40;100427.09;5048178;28;841;-67
2021/04/26 01:29:41;;;;;;;;;;;;;;;19.33;65.50;100420.13;5048476;28;1213;-68
2021/04/26 01:32:15;;;;;;;;;;;;;;;19.34;65.53;100419.16;5048895;28;1069;-67
2021/04/26 01:34:43;;;;;;;;;;;;;;;19.33;65.45;100425.41;5047131;28;1417;-68
2021/04/26 01:37:09;;;;;;;;;;;;;;;19.32;65.54;100421.06;5047182;28;1783;-69
2021/04/26 01:39:37;;;;;;;;;;;;;;;19.33;65.46;100430.69;5049132;28;1228;-67
2021/04/26 01:42:04;;;;;;;;;;;;;;;19.32;65.43;100426.34;5048206;28;1973;-67
2021/04/26 01:44:31;;;;;;;;;;;;;;;19.32;65.47;100439.56;5048436;28;1295;-67
2021/04/26 01:46:58;;;;;;;;;;;;;;;19.33;65.41;100441.25;5048365;28;890;-68
2021/04/26 01:49:24;;;;;;;;;;;;;;;19.32;65.53;100439.56;5048261;28;1213;-68
2021/04/26 01:51:51;;;;;;;;;;;;;;;19.31;65.46;100432.56;5048403;28;798;-68
2021/04/26 01:54:17;;;;;;;;;;;;;;;19.31;65.60;100417.56;5050879;28;1205;-68
2021/04/26 01:56:44;;;;;;;;;;;;;;;19.31;65.52;100414.06;5050548;28;838;-68
2021/04/26 01:59:11;;;;;;;;;;;;;;;19.31;65.45;100411.44;5051650;28;1456;-68
2021/04/26 02:01:37;;;;;;;;;;;;;;;19.31;65.44;100406.16;5052374;28;840;-68
2021/04/26 02:04:05;;;;;;;;;;;;;;;19.31;65.33;100398.22;5051866;28;1902;-67
2021/04/26 02:06:32;;;;;;;;;;;;;;;19.31;65.33;100403.50;5050526;28;933;-68
2021/04/26 02:09:00;;;;;;;;;;;;;;;19.30;65.27;100393.91;5052122;28;1212;-69
2021/04/26 02:11:26;;;;;;;;;;;;;;;19.29;65.39;100392.22;5052175;28;1237;-69
2021/04/26 02:13:54;;;;;;;;;;;;;;;19.31;65.29;100398.22;5052334;28;1275;-68
2021/04/26 02:16:21;;;;;;;;;;;;;;;19.30;65.26;100391.28;5052116;28;1091;-68
2021/04/26 02:18:47;;;;;;;;;;;;;;;19.29;65.31;100377.22;5050462;28;1341;-68
2021/04/26 02:21:13;;;;;;;;;;;;;;;19.29;65.38;100376.38;5050294;28;1036;-68
2021/04/26 02:23:43;;;;;;;;;;;;;;;19.30;65.35;100380.72;5052170;28;1983;-68
2021/04/26 02:26:09;;;;;;;;;;;;;;;19.29;65.31;100376.38;5051823;28;901;-68
2021/04/26 02:28:35;;;;;;;;;;;;;;;19.28;65.24;100372.03;5052272;28;1318;-68
2021/04/26 02:31:03;;;;;;;;;;;;;;;19.29;65.24;100363.16;5051672;28;830;-68
2021/04/26 02:33:33;;;;;;;;;;;;;;;19.29;65.22;100360.53;5051646;28;1326;-68
2021/04/26 02:36:12;;;;;;;;;;;;;;;19.29;65.14;100361.38;5051648;28;842;-68
2021/04/26 02:38:42;;;;;;;;;;;;;;;19.29;65.14;100355.25;5051454;28;1252;-68
2021/04/26 02:41:13;;;;;;;;;;;;;;;19.27;65.22;100350.03;5049973;28;1329;-68
2021/04/26 02:43:42;;;;;;;;;;;;;;;19.28;65.13;100345.63;5052024;28;1969;-68
2021/04/26 02:46:08;;;;;;;;;;;;;;;19.27;65.26;100342.13;5050917;28;854;-68
2021/04/26 02:48:36;;;;;;;;;;;;;;;19.23;65.14;100334.50;5052899;28;1228;-68
2021/04/26 02:51:02;;;;;;;;;;;;;;;19.27;65.16;100341.28;5051923;28;825;-68
2021/04/26 02:53:30;;;;;;;;;;;;;;;19.27;65.24;100326.28;5051137;28;1220;-68
2021/04/26 02:56:02;;;;;;;;;;;;;;;19.29;65.21;100318.25;5051124;28;794;-68
2021/04/26 02:58:28;;;;;;;;;;;;;;;19.29;65.23;100313.84;5051229;28;1492;-68
2021/04/26 03:00:55;;;;;;;;;;;;;;;19.29;65.29;100312.97;5051003;28;782;-68
2021/04/26 03:03:22;;;;;;;;;;;;;;;19.29;65.30;100326.19;5050901;28;1977;-68
2021/04/26 03:05:50;;;;;;;;;;;;;;;19.28;65.06;100321.84;5049368;28;1595;-67
2021/04/26 03:08:17;;;;;;;;;;;;;;;19.28;65.13;100332.41;5049556;28;1240;-69
2021/04/26 03:10:45;;;;;;;;;;;;;;;19.27;65.18;100326.28;5051054;28;907;-70
2021/04/26 03:13:11;;;;;;;;;;;;;;;19.27;65.26;100328.09;5050924;28;1345;-68
2021/04/26 03:15:39;;;;;;;;;;;;;;;19.27;65.29;100325.44;5050806;28;818;-69
2021/04/26 03:18:06;;;;;;;;;;;;;;;19.27;65.15;100317.53;5050692;28;1323;-70
2021/04/26 03:20:32;;;;;;;;;;;;;;;19.26;65.11;100308.75;5050903;28;1059;-69
2021/04/26 03:22:59;;;;;;;;;;;;;;;19.26;65.20;100308.75;5050397;28;1977;-68
2021/04/26 03:25:25;;;;;;;;;;;;;;;19.27;65.01;100312.25;5050791;28;1138;-69
2021/04/26 03:27:53;;;;;;;;;;;;;;;19.26;65.07;100323.75;5050932;28;1210;-69
2021/04/26 03:30:21;;;;;;;;;;;;;;;19.25;65.16;100314.97;5050896;28;1290;-69
2021/04/26 03:32:48;;;;;;;;;;;;;;;19.24;65.12;100312.44;5050477;28;1221;-70
2021/04/26 03:35:15;;;;;;;;;;;;;;;19.26;65.14;100321.09;5050790;28;1269;-70
2021/04/26 03:37:45;;;;;;;;;;;;;;;19.26;65.15;100315.81;5048801;28;1322;-70
2021/04/26 03:40:11;;;;;;;;;;;;;;;19.26;65.19;100313.19;5050674;28;1132;-69
2021/04/26 03:42:38;;;;;;;;;;;;;;;19.26;65.17;100321.09;5050014;28;1975;-69
2021/04/26 03:45:04;;;;;;;;;;;;;;;19.25;65.10;100316.75;5050137;28;1143;-68
2021/04/26 03:47:31;;;;;;;;;;;;;;;19.25;65.08;100311.47;5047894;28;1327;-68
2021/04/26 03:49:57;;;;;;;;;;;;;;;19.25;65.21;100314.13;5048923;28;1010;-68
2021/04/26 03:52:26;;;;;;;;;;;;;;;19.25;65.34;100308.84;5049836;28;1221;-69
2021/04/26 03:54:52;;;;;;;;;;;;;;;19.24;65.23;100299.25;5050332;28;1142;-69
2021/04/26 03:57:19;;;;;;;;;;;;;;;19.24;65.19;100288.69;5049934;28;984;-69
2021/04/26 03:59:45;;;;;;;;;;;;;;;19.24;65.10;100283.41;5050206;28;1431;-69
2021/04/26 04:02:13;;;;;;;;;;;;;;;19.24;65.20;100267.56;5049853;28;1977;-69
2021/04/26 04:04:40;;;;;;;;;;;;;;;19.25;65.24;100269.22;5050046;28;1192;-69
2021/04/26 04:07:07;;;;;;;;;;;;;;;19.24;65.17;100249.91;5031626;28;1241;-69
2021/04/26 04:09:33;;;;;;;;;;;;;;;19.23;65.24;100213.91;5049873;28;1237;-69
2021/04/26 04:11:59;;;;;;;;;;;;;;;19.24;65.04;100198.91;5048973;28;1443;-69
2021/04/26 04:14:26;;;;;;;;;;;;;;;19.24;65.28;100194.44;5049409;28;1451;-69
2021/04/26 04:16:52;;;;;;;;;;;;;;;19.24;65.21;100154.03;5048945;28;822;-69
2021/04/26 04:19:19;;;;;;;;;;;;;;;19.24;65.34;100119.69;5048008;28;1318;-69
2021/04/26 04:21:45;;;;;;;;;;;;;;;19.23;65.37;100086.31;5050159;28;1258;-69
2021/04/26 04:24:11;;;;;;;;;;;;;;;19.23;65.18;100052.84;5049637;28;1908;-69
2021/04/26 04:26:38;;;;;;;;;;;;;;;19.22;65.43;100008.88;5047887;28;1226;-69
2021/04/26 04:29:06;;;;;;;;;;;;;;;19.22;65.19;100006.25;5047970;28;1173;-69
2021/04/26 04:31:32;;;;;;;;;;;;;;;19.23;65.10;100012.38;5049361;28;854;-69
2021/04/26 04:33:58;;;;;;;;;;;;;;;19.24;65.21;100051.03;5049242;28;1208;-69
2021/04/26 04:36:25;;;;;;;;;;;;;;;19.22;64.88;100069.63;5031238;28;1186;-69
2021/04/26 04:38:51;;;;;;;;;;;;;;;19.22;64.81;100074.91;5049149;28;1331;-69
2021/04/26 04:41:17;;;;;;;;;;;;;;;19.23;64.82;100073.97;5049333;28;848;-69
2021/04/26 04:43:43;;;;;;;;;;;;;;;19.22;64.76;100068.75;5049280;28;1984;-69
2021/04/26 04:46:10;;;;;;;;;;;;;;;19.23;64.70;100065.19;5049189;28;790;-70
2021/04/26 04:48:36;;;;;;;;;;;;;;;19.21;64.78;100051.25;5049154;28;1224;-69
2021/04/26 04:51:03;;;;;;;;;;;;;;;19.21;64.79;100052.06;5048937;28;861;-69
2021/04/26 04:53:29;;;;;;;;;;;;;;;19.17;64.94;100040.06;5048987;28;1301;-69
2021/04/26 04:55:55;;;;;;;;;;;;;;;19.21;64.66;100045.97;5048920;28;933;-69
2021/04/26 04:58:22;;;;;;;;;;;;;;;19.20;64.68;100044.28;5047411;28;1750;-68
2021/04/26 05:00:48;;;;;;;;;;;;;;;19.21;64.77;100035.41;5047311;28;1245;-69
2021/04/26 05:03:14;;;;;;;;;;;;;;;19.20;64.62;100046.91;5047401;28;1978;-69
2021/04/26 05:05:41;;;;;;;;;;;;;;;19.20;64.59;100052.19;5049140;28;913;-69
2021/04/26 05:08:07;;;;;;;;;;;;;;;19.19;64.39;100055.78;5049322;28;1225;-69
2021/04/26 05:10:33;;;;;;;;;;;;;;;19.19;64.50;100061.06;5049382;28;774;-69
2021/04/26 05:12:59;;;;;;;;;;;;;;;19.18;64.61;100070.78;5048586;28;1208;-69
2021/04/26 05:15:25;;;;;;;;;;;;;;;19.20;64.53;100065.41;5048991;28;1086;-69
2021/04/26 05:17:53;;;;;;;;;;;;;;;19.18;64.52;100052.28;5048677;28;1324;-69
2021/04/26 05:20:20;;;;;;;;;;;;;;;19.18;64.63;100052.28;5048976;28;1429;-70
2021/04/26 05:22:46;;;;;;;;;;;;;;;19.18;64.58;100064.66;5048360;28;1910;-70
2021/04/26 05:25:13;;;;;;;;;;;;;;;19.18;64.55;100064.66;5049015;28;1168;-69
2021/04/26 05:27:59;;;;;;;;;;;;;;;19.21;65.06;100062.63;5050340;28;1287;-72
2021/04/26 05:30:25;;;;;;;;;;;;;;;19.15;64.47;100056.97;5051080;28;1333;-75
2021/04/26 05:32:56;;;;;;;;;;;;;;;19.17;64.54;100065.63;5050543;28;1372;-72
2021/04/26 05:35:23;;;;;;;;;;;;;;;19.18;64.83;100078.69;5052946;28;1068;-73
2021/04/26 05:37:49;;;;;;;;;;;;;;;19.18;64.89;100075.22;5051899;28;1260;-73
2021/04/26 05:40:16;;;;;;;;;;;;;;;19.18;64.84;100078.69;5052364;28;1268;-74
2021/04/26 05:42:42;;;;;;;;;;;;;;;19.25;64.83;100073.84;5050868;28;1973;-69
2021/04/26 05:45:09;;;;;;;;;;;;;;;19.31;64.70;100081.34;5050365;28;1542;-70
2021/04/26 05:47:35;;;;;;;;;;;;;;;19.33;64.98;100084.72;5051377;28;1260;-68
2021/04/26 05:50:02;;;;;;;;;;;;;;;19.40;64.57;100083.38;5052391;28;1155;-66
2021/04/26 05:52:29;;;;;;;;;;;;;;;19.30;64.59;100082.31;5051497;28;1658;-64
2021/04/26 05:54:55;;;;;;;;;;;;;;;19.24;64.29;100074.81;5051436;28;1052;-67
2021/04/26 05:57:22;;;;;;;;;;;;;;;19.23;64.52;100067.81;5033173;28;1223;-67
2021/04/26 05:59:48;;;;;;;;;;;;;;;19.25;65.23;100060.63;5033370;28;1227;-63
2021/04/26 06:02:14;;;;;;;;;;;;;;;19.33;64.57;100055.69;5052169;28;1910;-67
2021/04/26 06:04:41;;;;;;;;;;;;;;;19.29;64.25;100052.41;5052070;28;1211;-66
2021/04/26 06:07:07;;;;;;;;;;;;;;;19.24;64.30;100056.31;5051971;28;1116;-66
2021/04/26 06:09:33;;;;;;;;;;;;;;;19.21;64.08;100052.06;5050741;28;1233;-65
2021/04/26 06:11:59;;;;;;;;;;;;;;;19.23;64.62;100055.47;5051886;28;826;-65
2021/04/26 06:14:26;;;;;;;;;;;;;;;19.21;64.61;100049.44;5050101;28;1456;-65
2021/04/26 06:16:52;;;;;;;;;;;;;;;19.22;64.45;100058.22;5033633;28;1189;-64
2021/04/26 06:19:18;;;;;;;;;;;;;;;19.24;64.89;100062.44;5033912;28;1338;-64
2021/04/26 06:21:45;;;;;;;;;;;;;;;19.23;64.96;100054.63;5052168;28;1187;-63
2021/04/26 06:24:11;;;;;;;;;;;;;;;19.23;64.69;100060.75;5042873;28;1898;-66
2021/04/26 06:26:37;;;;;;;;;;;;;;;19.23;64.68;100055.47;5050964;28;933;-63
2021/04/26 06:29:03;;;;;;;;;;;;;;;19.22;64.87;100045.84;5049808;28;1605;-63
2021/04/26 06:31:30;;;;;;;;;;;;;;;19.22;64.78;100051.13;5051937;28;837;-65
2021/04/26 06:33:56;;;;;;;;;;;;;;;19.22;64.63;100050.28;5034887;28;1769;-64
2021/04/26 06:36:24;;;;;;;;;;;;;;;19.22;64.55;100066.97;5052215;28;873;-65
2021/04/26 06:38:50;;;;;;;;;;;;;;;19.22;64.49;100069.63;5050524;28;1209;-65
2021/04/26 06:41:16;;;;;;;;;;;;;;;19.25;64.63;100073.84;5050457;28;868;-66
2021/04/26 06:43:46;;;;;;;;;;;;;;;19.25;64.90;100074.69;5049897;28;1914;-65
2021/04/26 06:46:13;;;;;;;;;;;;;;;19.22;64.59;100082.81;5015937;28;1734;-66
2021/04/26 06:48:39;;;;;;;;;;;;;;;19.25;64.50;100102.88;5049868;28;1228;-67
2021/04/26 06:51:06;;;;;;;;;;;;;;;19.23;64.41;100104.78;5032563;28;1201;-62
2021/04/26 06:53:32;;;;;;;;;;;;;;;19.23;64.02;100099.50;5031352;28;1331;-67
2021/04/26 06:55:58;;;;;;;;;;;;;;;19.23;64.32;100089.81;5015897;28;1195;-68
2021/04/26 06:58:25;;;;;;;;;;;;;;;19.22;64.13;100074.91;5028245;28;1719;-67
2021/04/26 07:00:51;;;;;;;;;;;;;;;19.22;64.12;100079.31;5028214;28;1257;-65
2021/04/26 07:03:17;;;;;;;;;;;;;;;19.25;64.44;100089.69;5028628;28;1967;-65
2021/04/26 07:05:44;;;;;;;;;;;;;;;19.22;64.00;100089.88;5030468;28;869;-65
2021/04/26 07:08:10;;;;;;;;;;;;;;;19.23;64.11;100088.94;5030152;28;1232;-66
2021/04/26 07:10:36;;;;;;;;;;;;;;;19.23;64.29;100102.16;5029730;28;944;-64
2021/04/26 07:13:03;;;;;;;;;;;;;;;19.23;64.29;100103.00;5030003;28;1169;-64
2021/04/26 07:15:29;;;;;;;;;;;;;;;19.26;64.18;100102.78;5029747;28;746;-63
2021/04/26 07:17:55;;;;;;;;;;;;;;;19.25;64.18;100093.16;5029293;28;1392;-64
2021/04/26 07:20:22;;;;;;;;;;;;;;;19.23;64.02;100091.59;5028146;28;1217;-65
2021/04/26 07:22:48;;;;;;;;;;;;;;;19.22;64.02;100077.53;5029787;28;1914;-64
2021/04/26 07:25:15;;;;;;;;;;;;;;;19.24;64.19;100077.44;5027872;28;1349;-64
2021/04/26 07:27:41;;;;;;;;;;;;;;;19.23;64.30;100067.81;5029527;28;1249;-65
2021/04/26 07:30:08;;;;;;;;;;;;;;;19.23;64.29;100065.19;5029140;28;1444;-65
2021/04/26 07:32:35;;;;;;;;;;;;;;;19.26;64.90;100067.63;5044936;28;1320;-61
2021/04/26 07:35:01;;;;;;;;;;;;;;;19.26;64.42;100081.66;5041607;28;1699;-67
2021/04/26 07:37:28;;;;;;;;;;;;;;;19.29;65.28;100113.13;5026729;28;1265;-67
2021/04/26 07:39:54;;;;;;;;;;;;;;;19.29;65.42;100123.69;5009317;28;1253;-67
2021/04/26 07:42:21;;;;;;;;;;;;;;;19.30;65.55;100132.47;5009215;28;1205;-69
2021/04/26 07:44:47;;;;;;;;;;;;;;;19.27;63.63;100135.31;5026094;28;1132;-68
2021/04/26 07:47:13;;;;;;;;;;;;;;;19.33;64.62;100132.25;5026149;28;1600;-67
2021/04/26 07:49:40;;;;;;;;;;;;;;;19.27;61.07;100115.03;5027213;28;1616;-68
2021/04/26 07:52:26;;;;;;;;;;;;;;;19.29;64.06;100118.41;5011574;28;1366;-67
2021/04/26 07:54:52;;;;;;;;;;;;;;;19.29;63.98;100118.41;5028995;28;1160;-68
2021/04/26 07:57:18;;;;;;;;;;;;;;;19.34;64.62;100118.94;5027888;28;1533;-72
2021/04/26 07:59:45;;;;;;;;;;;;;;;19.33;65.48;100111.13;5046974;28;1231;-69
2021/04/26 08:02:11;;;;;;;;;;;;;;;19.36;66.07;100101.19;5029924;28;1224;-69
2021/04/26 08:04:37;;;;;;;;;;;;;;;19.41;65.53;100095.63;5048158;28;1910;-72
2021/04/26 08:07:04;;;;;;;;;;;;;;;19.36;64.72;100082.69;5030609;28;856;-69
2021/04/26 08:09:30;;;;;;;;;;;;;;;19.36;65.02;100080.06;5030145;28;1313;-68
2021/04/26 08:11:56;;;;;;;;;;;;;;;19.37;65.15;100080.91;5048365;28;759;-68
2021/04/26 08:14:23;;;;;;;;;;;;;;;19.36;64.84;100084.50;5048198;28;1161;-69
2021/04/26 08:16:49;;;;;;;;;;;;;;;19.36;64.60;100082.69;5048060;28;924;-70
2021/04/26 08:19:16;;;;;;;;;;;;;;;19.36;64.42;100080.06;5030293;28;1566;-69
2021/04/26 08:21:43;;;;;;;;;;;;;;;19.30;64.39;100075.19;5047878;28;1585;-69
2021/04/26 08:24:09;;;;;;;;;;;;;;;19.38;64.25;100093.16;5029700;28;1906;-68
2021/04/26 08:26:35;;;;;;;;;;;;;;;19.38;64.06;100088.75;5047992;28;771;-68
2021/04/26 08:29:02;;;;;;;;;;;;;;;19.37;64.23;100099.38;5047644;28;1207;-68
2021/04/26 08:31:28;;;;;;;;;;;;;;;19.39;64.15;100097.50;5029730;28;1131;-70
2021/04/26 08:33:54;;;;;;;;;;;;;;;19.37;63.79;100099.38;5013438;28;1205;-69
2021/04/26 08:36:21;;;;;;;;;;;;;;;19.37;63.55;100110.81;5029261;28;1291;-70
2021/04/26 08:38:48;;;;;;;;;;;;;;;19.37;63.42;100116.09;5048198;28;1220;-71
2021/04/26 08:41:14;;;;;;;;;;;;;;;19.36;63.37;100119.66;5029724;28;775;-70
2021/04/26 08:43:42;;;;;;;;;;;;;;;19.35;63.27;100114.50;5046965;28;1918;-70
2021/04/26 08:46:08;;;;;;;;;;;;;;;19.35;63.19;100107.44;5013257;28;1181;-70
2021/04/26 08:48:35;;;;;;;;;;;;;;;19.35;63.06;100096.88;5030115;28;1229;-70
2021/04/26 08:51:02;;;;;;;;;;;;;;;19.34;62.78;100095.16;5029456;28;1127;-73
2021/04/26 08:53:29;;;;;;;;;;;;;;;19.33;62.78;100106.69;5029222;28;1383;-71
2021/04/26 08:55:55;;;;;;;;;;;;;;;19.36;63.61;100113.56;5029979;28;1449;-67
2021/04/26 08:58:21;;;;;;;;;;;;;;;19.35;62.89;100112.72;5046216;28;1649;-68
2021/04/26 09:00:48;;;;;;;;;;;;;;;19.35;62.92;100114.50;5046638;28;1150;-67
2021/04/26 09:03:14;;;;;;;;;;;;;;;19.33;62.43;100113.78;5011652;28;1910;-67
2021/04/26 09:05:43;;;;;;;;;;;;;;;19.32;62.09;100106.81;5046174;28;821;-68
2021/04/26 09:08:12;;;;;;;;;;;;;;;19.33;61.65;100105.84;5027890;28;1359;-70
2021/04/26 09:10:41;;;;;;;;;;;;;;;19.43;62.70;100110.41;5027893;28;1293;-68
2021/04/26 09:13:28;;;;;;;;;;;;;;;19.38;62.47;100119.56;5046104;28;1178;-68
2021/04/26 09:15:55;;;;;;;;;;;;;;;19.36;62.82;100129.41;5046184;28;1059;-66
2021/04/26 09:18:42;;;;;;;;;;;;;;;19.35;62.91;100128.56;5011357;28;1429;-69
2021/04/26 09:21:16;;;;;;;;;;;;;;;19.35;63.19;100133.84;5028325;28;1277;-67
2021/04/26 09:23:44;;;;;;;;;;;;;;;19.35;63.71;100127.72;5046432;28;1910;-68
2021/04/26 09:26:25;;;;;;;;;;;;;;;19.35;64.09;100123.28;5047509;28;731;-68
2021/04/26 09:29:10;;;;;;;;;;;;;;;19.34;64.25;100112.81;5029700;28;1296;-67
2021/04/26 09:31:37;;;;;;;;;;;;;;;19.34;64.88;100083.75;5029387;28;1090;-66
2021/04/26 09:34:03;;;;;;;;;;;;;;;19.33;64.73;100061.78;5047506;28;1270;-67
2021/04/26 09:36:33;;;;;;;;;;;;;;;19.33;64.91;100061.78;5029563;28;1250;-67
2021/04/26 09:39:04;;;;;;;;;;;;;;;19.34;64.77;100081.97;5029686;28;1276;-67
2021/04/26 09:41:34;;;;;;;;;;;;;;;19.35;65.08;100074.91;5047582;28;862;-67
2021/04/26 09:44:00;;;;;;;;;;;;;;;19.35;64.80;100069.63;5047534;28;1914;-68
2021/04/26 09:46:38;;;;;;;;;;;;;;;19.35;65.08;100070.47;5029402;28;1512;-68
2021/04/26 09:49:07;;;;;;;;;;;;;;;19.35;64.88;100061.69;5043314;28;1336;-67
2021/04/26 09:51:33;;;;;;;;;;;;;;;19.35;64.77;100051.13;5047178;28;779;-67
2021/04/26 09:54:00;;;;;;;;;;;;;;;19.34;64.69;100033.59;5012405;28;1522;-68
2021/04/26 09:56:26;;;;;;;;;;;;;;;19.34;64.64;100046.78;5047209;28;992;-68
2021/04/26 09:58:53;;;;;;;;;;;;;;;19.33;64.74;100039.84;5047455;28;1605;-67
2021/04/26 10:01:22;;;;;;;;;;;;;;;19.34;64.53;100033.59;5046880;28;944;-66
2021/04/26 10:03:49;;;;;;;;;;;;;;;19.34;64.45;100030.94;5047125;28;1906;-66
2021/04/26 10:06:19;;;;;;;;;;;;;;;19.34;64.27;100030.94;5047599;28;784;-67
2021/04/26 10:08:47;;;;;;;;;;;;;;;19.29;64.27;100009.31;5047379;28;1200;-66
2021/04/26 10:11:14;;;;;;;;;;;;;;;19.38;64.51;100021.88;5012880;28;1268;-67
2021/04/26 10:13:42;;;;;;;;;;;;;;;19.39;61.91;100005.06;5045462;28;2069;-66
2021/04/26 10:16:13;;;;;;;;;;;;;;;19.41;59.15;100003.19;5049157;28;1855;-69
2021/04/26 10:18:42;;;;;;;;;;;;;;;19.46;58.75;99993.13;5049890;28;1350;-70
2021/04/26 10:21:18;;;;;;;;;;;;;;;19.44;57.22;99990.63;5050128;28;1800;-71
2021/04/26 10:23:49;;;;;;;;;;;;;;;19.43;55.34;99988.06;5031848;28;1920;-72
2021/04/26 10:26:38;;;;;;;;;;;;;;;19.42;54.97;99989.03;5033191;28;789;-68
2021/04/26 10:29:27;;;;;;;;;;;;;;;19.41;53.71;99993.47;5049687;28;1815;-68
2021/04/26 10:32:01;;;;;;;;;;;;;;;19.42;53.10;99997.81;5049372;28;786;-66
2021/04/26 10:34:33;;;;;;;;;;;;;;;19.40;51.42;99993.56;5049645;28;1228;-66
2021/04/26 10:37:20;;;;;;;;;;;;;;;19.40;52.22;99991.78;5014441;28;1461;-67
2021/04/26 10:39:59;;;;;;;;;;;;;;;19.39;53.30;99998.03;5047300;28;1332;-66
2021/04/26 10:42:29;;;;;;;;;;;;;;;19.40;53.30;99993.56;5048272;28;1240;-68
2021/04/26 10:44:56;;;;;;;;;;;;;;;19.42;55.16;99992.53;5049370;28;1981;-66
2021/04/26 10:47:24;;;;;;;;;;;;;;;19.43;54.26;99988.06;5030719;28;1851;-67
2021/04/26 10:49:53;;;;;;;;;;;;;;;19.42;53.59;99981.13;5030680;28;1193;-66
2021/04/26 10:52:26;;;;;;;;;;;;;;;19.40;53.56;99973.28;5031279;28;839;-66
2021/04/26 10:55:08;;;;;;;;;;;;;;;19.40;53.83;99973.28;5030929;28;1273;-64
2021/04/26 10:57:45;;;;;;;;;;;;;;;19.41;53.27;99963.56;5048440;28;1458;-67
2021/04/26 11:00:21;;;;;;;;;;;;;;;19.41;53.47;99963.56;5048842;28;1172;-66
2021/04/26 11:02:48;;;;;;;;;;;;;;;19.40;54.19;99967.16;5030537;28;1905;-67
2021/04/26 11:05:17;;;;;;;;;;;;;;;19.40;53.85;99957.44;5048876;28;1280;-66
2021/04/26 11:07:46;;;;;;;;;;;;;;;19.40;54.20;99961.88;5048462;28;1219;-67
2021/04/26 11:10:31;;;;;;;;;;;;;;;19.40;54.03;99953.94;5048802;28;1304;-66
2021/04/26 11:12:59;;;;;;;;;;;;;;;19.39;54.12;99966.34;5048591;28;1217;-68
2021/04/26 11:15:26;;;;;;;;;;;;;;;19.39;53.79;99954.91;5048916;28;929;-66
2021/04/26 11:17:55;;;;;;;;;;;;;;;19.39;53.79;99965.47;5048543;28;1296;-65
2021/04/26 11:20:23;;;;;;;;;;;;;;;19.38;54.32;99954.03;5047951;28;1772;-65
2021/04/26 11:22:56;;;;;;;;;;;;;;;19.37;54.85;99946.22;5048397;28;2029;-67
2021/04/26 11:25:33;;;;;;;;;;;;;;;19.38;55.05;99955.84;5048471;28;1274;-67
2021/04/26 11:28:09;;;;;;;;;;;;;;;19.36;55.01;99947.19;5029367;28;1594;-65
2021/04/26 11:30:36;;;;;;;;;;;;;;;19.45;56.51;99944.78;5043507;28;823;-67
2021/04/26 11:33:04;;;;;;;;;;;;;;;19.43;56.36;99936.09;5042161;28;1249;-67
2021/04/26 11:35:31;;;;;;;;;;;;;;;19.47;57.48;99939.34;5048409;28;791;-68
2021/04/26 11:37:57;;;;;;;;;;;;;;;19.44;55.71;99940.44;5047740;28;1582;-67
2021/04/26 11:40:26;;;;;;;;;;;;;;;19.43;55.28;99932.59;5048120;28;1032;-65
2021/04/26 11:43:00;;;;;;;;;;;;;;;19.40;55.75;99935.47;5048175;28;1914;-67
2021/04/26 11:45:26;;;;;;;;;;;;;;;19.40;56.38;99930.19;5030096;28;775;-64
2021/04/26 11:47:53;;;;;;;;;;;;;;;19.40;56.03;99919.63;5047953;28;1219;-64
2021/04/26 11:50:19;;;;;;;;;;;;;;;19.37;56.23;99914.53;5048281;28;1234;-66
2021/04/26 11:52:45;;;;;;;;;;;;;;;19.35;56.57;99908.53;5047849;28;1177;-65
2021/04/26 11:55:13;;;;;;;;;;;;;;;19.34;56.31;99904.19;5048149;28;1060;-65
2021/04/26 11:57:39;;;;;;;;;;;;;;;19.34;56.68;99914.75;5047693;28;1523;-66
2021/04/26 12:00:09;;;;;;;;;;;;;;;19.32;56.78;99908.75;5048054;28;1145;-65
2021/04/26 12:02:39;;;;;;;;;;;;;;;19.30;56.63;99905.38;5030193;28;1343;-66
2021/04/26 12:05:11;;;;;;;;;;;;;;;19.34;57.58;99904.19;5047462;28;1918;-65
2021/04/26 12:07:37;;;;;;;;;;;;;;;19.36;57.46;99907.59;5047534;28;1208;-68
2021/04/26 12:10:04;;;;;;;;;;;;;;;19.27;57.51;99900.31;5023413;28;1348;-67
2021/04/26 12:12:31;;;;;;;;;;;;;;;19.32;57.73;99901.66;5031964;28;1690;-67
2021/04/26 12:14:58;;;;;;;;;;;;;;;19.29;57.96;99901.03;5032635;28;1231;-68
2021/04/26 12:17:27;;;;;;;;;;;;;;;19.27;58.13;99897.69;5051070;28;1366;-71
2021/04/26 12:20:16;;;;;;;;;;;;;;;19.24;58.35;99898.72;5029352;28;1693;-73
2021/04/26 12:23:01;;;;;;;;;;;;;;;19.33;58.72;99902.53;5032973;28;1914;-71
2021/04/26 12:25:37;;;;;;;;;;;;;;;19.27;58.48;99897.69;5005904;28;1272;-69
2021/04/26 12:28:40;;;;;;;;;;;;;;;19.30;59.33;99902.75;5054550;28;1319;-71
2021/04/26 12:31:27;;;;;;;;;;;;;;;19.26;59.12;99902.13;5068070;28;738;-72
2021/04/26 12:34:07;;;;;;;;;;;;;;;19.32;59.22;99900.81;5049282;28;1363;-66
2021/04/26 12:36:38;;;;;;;;;;;;;;;19.34;58.91;99898.91;5050170;28;1245;-65
2021/04/26 12:39:12;;;;;;;;;;;;;;;19.35;59.12;99901.44;5068723;28;1208;-66
2021/04/26 12:41:43;;;;;;;;;;;;;;;19.34;59.05;99896.25;5068532;28;882;-69
2021/04/26 12:44:11;;;;;;;;;;;;;;;19.45;59.84;99896.38;5050726;28;1984;-68
2021/04/26 12:46:39;;;;;;;;;;;;;;;19.55;60.05;99887.66;5068904;28;811;-68
2021/04/26 12:49:17;;;;;;;;;;;;;;;19.56;60.22;99889.34;5068938;28;1276;-69
2021/04/26 12:51:44;;;;;;;;;;;;;;;19.58;61.29;99894.50;5051039;28;814;-66
2021/04/26 12:54:12;;;;;;;;;;;;;;;19.58;61.44;99889.22;5068940;28;1224;-68
2021/04/26 12:56:38;;;;;;;;;;;;;;;19.64;61.99;99892.25;5068793;28;846;-64
2021/04/26 12:59:08;;;;;;;;;;;;;;;19.74;62.69;99895.06;5066581;28;1508;-67